sensor_id;sensor_type;location;lat;lon;timestamp;temperature;humidity
55777;DHT22;54079;44.540;18.784;2024-02-14T00:00:34;9.00;91.70
55777;DHT22;54079;44.540;18.784;2024-02-14T00:03:00;8.90;92.00
55777;DHT22;54079;44.540;18.784;2024-02-14T00:05:26;8.80;91.80
55777;DHT22;54079;44.540;18.784;2024-02-14T00:07:52;8.80;92.40
55777;DHT22;54079;44.540;18.784;2024-02-14T00:10:18;8.70;92.00
55777;DHT22;54079;44.540;18.784;2024-02-14T00:12:43;8.60;92.40
55777;DHT22;54079;44.540;18.784;2024-02-14T00:15:10;8.50;92.10
55777;DHT22;54079;44.540;18.784;2024-02-14T00:17:36;8.40;92.10
55777;DHT22;54079;44.540;18.784;2024-02-14T00:20:03;8.40;92.30
55777;DHT22;54079;44.540;18.784;2024-02-14T00:22:29;8.50;92.10
55777;DHT22;54079;44.540;18.784;2024-02-14T00:24:55;8.50;92.30
55777;DHT22;54079;44.540;18.784;2024-02-14T00:27:21;8.60;93.00
55777;DHT22;54079;44.540;18.784;2024-02-14T00:29:47;8.70;92.00
55777;DHT22;54079;44.540;18.784;2024-02-14T00:32:14;8.60;92.50
55777;DHT22;54079;44.540;18.784;2024-02-14T00:34:40;8.60;92.00
55777;DHT22;54079;44.540;18.784;2024-02-14T00:37:06;8.60;92.80
55777;DHT22;54079;44.540;18.784;2024-02-14T00:39:32;8.70;92.40
55777;DHT22;54079;44.540;18.784;2024-02-14T00:41:58;8.60;92.10
55777;DHT22;54079;44.540;18.784;2024-02-14T00:44:24;8.60;92.80
55777;DHT22;54079;44.540;18.784;2024-02-14T00:46:56;8.30;92.50
55777;DHT22;54079;44.540;18.784;2024-02-14T00:49:23;8.30;93.20
55777;DHT22;54079;44.540;18.784;2024-02-14T00:51:49;8.30;92.60
55777;DHT22;54079;44.540;18.784;2024-02-14T00:54:14;8.40;92.90
55777;DHT22;54079;44.540;18.784;2024-02-14T00:56:40;8.40;92.70
55777;DHT22;54079;44.540;18.784;2024-02-14T00:59:06;8.20;93.00
55777;DHT22;54079;44.540;18.784;2024-02-14T01:01:33;8.20;92.90
55777;DHT22;54079;44.540;18.784;2024-02-14T01:03:59;8.20;92.80
55777;DHT22;54079;44.540;18.784;2024-02-14T01:06:26;8.10;93.10
55777;DHT22;54079;44.540;18.784;2024-02-14T01:08:52;8.00;93.30
55777;DHT22;54079;44.540;18.784;2024-02-14T01:11:18;7.80;93.50
55777;DHT22;54079;44.540;18.784;2024-02-14T01:13:47;7.80;93.50
55777;DHT22;54079;44.540;18.784;2024-02-14T01:16:13;7.60;93.60
55777;DHT22;54079;44.540;18.784;2024-02-14T01:18:40;7.50;94.30
55777;DHT22;54079;44.540;18.784;2024-02-14T01:21:06;7.40;94.10
55777;DHT22;54079;44.540;18.784;2024-02-14T01:23:32;7.30;94.30
55777;DHT22;54079;44.540;18.784;2024-02-14T01:25:58;7.30;94.40
55777;DHT22;54079;44.540;18.784;2024-02-14T01:28:24;7.30;94.60
55777;DHT22;54079;44.540;18.784;2024-02-14T01:30:51;7.00;94.60
55777;DHT22;54079;44.540;18.784;2024-02-14T01:33:17;7.10;94.90
55777;DHT22;54079;44.540;18.784;2024-02-14T01:35:43;7.20;94.70
55777;DHT22;54079;44.540;18.784;2024-02-14T01:38:09;7.10;95.00
55777;DHT22;54079;44.540;18.784;2024-02-14T01:40:35;7.20;94.70
55777;DHT22;54079;44.540;18.784;2024-02-14T01:43:01;7.30;94.80
55777;DHT22;54079;44.540;18.784;2024-02-14T01:45:27;7.40;94.60
55777;DHT22;54079;44.540;18.784;2024-02-14T01:47:53;7.60;94.60
55777;DHT22;54079;44.540;18.784;2024-02-14T01:50:21;7.70;94.70
55777;DHT22;54079;44.540;18.784;2024-02-14T01:52:57;7.90;94.40
55777;DHT22;54079;44.540;18.784;2024-02-14T01:55:25;8.00;94.30
55777;DHT22;54079;44.540;18.784;2024-02-14T01:57:52;8.10;94.10
55777;DHT22;54079;44.540;18.784;2024-02-14T02:00:19;8.10;93.80
55777;DHT22;54079;44.540;18.784;2024-02-14T02:02:45;8.30;93.60
55777;DHT22;54079;44.540;18.784;2024-02-14T02:05:13;8.30;93.60
55777;DHT22;54079;44.540;18.784;2024-02-14T02:07:39;8.40;93.70
55777;DHT22;54079;44.540;18.784;2024-02-14T02:10:10;8.50;93.30
55777;DHT22;54079;44.540;18.784;2024-02-14T02:12:37;8.50;93.30
55777;DHT22;54079;44.540;18.784;2024-02-14T02:15:07;8.50;93.30
55777;DHT22;54079;44.540;18.784;2024-02-14T02:17:36;8.70;93.10
55777;DHT22;54079;44.540;18.784;2024-02-14T02:20:03;8.80;93.10
55777;DHT22;54079;44.540;18.784;2024-02-14T02:22:31;9.00;92.80
55777;DHT22;54079;44.540;18.784;2024-02-14T02:25:01;9.10;92.90
55777;DHT22;54079;44.540;18.784;2024-02-14T02:27:27;9.20;92.70
55777;DHT22;54079;44.540;18.784;2024-02-14T02:29:53;9.20;92.70
55777;DHT22;54079;44.540;18.784;2024-02-14T02:32:19;9.40;92.90
55777;DHT22;54079;44.540;18.784;2024-02-14T02:34:45;9.20;92.50
55777;DHT22;54079;44.540;18.784;2024-02-14T02:37:11;9.10;92.60
55777;DHT22;54079;44.540;18.784;2024-02-14T02:39:38;9.10;92.60
55777;DHT22;54079;44.540;18.784;2024-02-14T02:42:04;9.30;92.70
55777;DHT22;54079;44.540;18.784;2024-02-14T02:44:31;9.40;92.90
55777;DHT22;54079;44.540;18.784;2024-02-14T02:46:57;9.40;92.00
55777;DHT22;54079;44.540;18.784;2024-02-14T02:49:23;9.40;92.00
55777;DHT22;54079;44.540;18.784;2024-02-14T02:51:49;9.50;91.90
55777;DHT22;54079;44.540;18.784;2024-02-14T02:54:15;9.40;92.00
55777;DHT22;54079;44.540;18.784;2024-02-14T02:56:41;9.30;92.30
55777;DHT22;54079;44.540;18.784;2024-02-14T02:59:07;9.30;92.40
55777;DHT22;54079;44.540;18.784;2024-02-14T03:01:36;9.40;92.20
55777;DHT22;54079;44.540;18.784;2024-02-14T03:04:03;9.40;92.90
55777;DHT22;54079;44.540;18.784;2024-02-14T03:06:29;9.30;92.30
55777;DHT22;54079;44.540;18.784;2024-02-14T03:08:56;9.20;92.20
55777;DHT22;54079;44.540;18.784;2024-02-14T03:11:23;9.10;92.30
55777;DHT22;54079;44.540;18.784;2024-02-14T03:13:50;8.90;92.60
55777;DHT22;54079;44.540;18.784;2024-02-14T03:16:17;9.00;92.70
55777;DHT22;54079;44.540;18.784;2024-02-14T03:18:44;9.00;92.90
55777;DHT22;54079;44.540;18.784;2024-02-14T03:21:10;8.80;92.70
55777;DHT22;54079;44.540;18.784;2024-02-14T03:23:37;8.50;92.60
55777;DHT22;54079;44.540;18.784;2024-02-14T03:26:05;8.30;92.70
55777;DHT22;54079;44.540;18.784;2024-02-14T03:28:33;8.60;92.90
55777;DHT22;54079;44.540;18.784;2024-02-14T03:30:59;8.60;92.50
55777;DHT22;54079;44.540;18.784;2024-02-14T03:33:25;8.50;92.20
55777;DHT22;54079;44.540;18.784;2024-02-14T03:35:51;8.40;92.60
55777;DHT22;54079;44.540;18.784;2024-02-14T03:38:27;8.30;93.00
55777;DHT22;54079;44.540;18.784;2024-02-14T03:40:53;8.30;92.60
55777;DHT22;54079;44.540;18.784;2024-02-14T03:43:20;8.10;92.90
55777;DHT22;54079;44.540;18.784;2024-02-14T03:45:47;8.10;93.00
55777;DHT22;54079;44.540;18.784;2024-02-14T03:48:13;8.10;93.20
55777;DHT22;54079;44.540;18.784;2024-02-14T03:50:39;8.00;93.40
55777;DHT22;54079;44.540;18.784;2024-02-14T03:53:05;8.20;93.10
55777;DHT22;54079;44.540;18.784;2024-02-14T03:55:31;8.30;93.20
55777;DHT22;54079;44.540;18.784;2024-02-14T03:57:57;8.30;93.50
55777;DHT22;54079;44.540;18.784;2024-02-14T04:00:23;8.50;94.00
55777;DHT22;54079;44.540;18.784;2024-02-14T04:02:49;8.40;93.30
55777;DHT22;54079;44.540;18.784;2024-02-14T04:05:18;8.10;93.60
55777;DHT22;54079;44.540;18.784;2024-02-14T04:07:44;8.30;93.30
55777;DHT22;54079;44.540;18.784;2024-02-14T04:10:14;8.30;93.40
55777;DHT22;54079;44.540;18.784;2024-02-14T04:12:40;8.40;93.40
55777;DHT22;54079;44.540;18.784;2024-02-14T04:15:06;8.50;93.10
55777;DHT22;54079;44.540;18.784;2024-02-14T04:17:32;8.50;93.00
55777;DHT22;54079;44.540;18.784;2024-02-14T04:19:58;8.50;93.30
55777;DHT22;54079;44.540;18.784;2024-02-14T04:22:24;8.50;93.30
55777;DHT22;54079;44.540;18.784;2024-02-14T04:24:50;8.50;93.00
55777;DHT22;54079;44.540;18.784;2024-02-14T04:27:17;8.60;93.90
55777;DHT22;54079;44.540;18.784;2024-02-14T04:29:46;8.50;92.80
55777;DHT22;54079;44.540;18.784;2024-02-14T04:32:13;8.20;92.90
55777;DHT22;54079;44.540;18.784;2024-02-14T04:34:39;7.90;93.40
55777;DHT22;54079;44.540;18.784;2024-02-14T04:37:06;7.60;93.90
55777;DHT22;54079;44.540;18.784;2024-02-14T04:39:41;7.60;93.80
55777;DHT22;54079;44.540;18.784;2024-02-14T04:42:07;7.40;94.40
55777;DHT22;54079;44.540;18.784;2024-02-14T04:44:34;7.50;94.60
55777;DHT22;54079;44.540;18.784;2024-02-14T04:47:00;7.50;94.20
55777;DHT22;54079;44.540;18.784;2024-02-14T04:49:26;7.40;94.00
55777;DHT22;54079;44.540;18.784;2024-02-14T04:51:54;7.10;94.20
55777;DHT22;54079;44.540;18.784;2024-02-14T04:54:20;7.00;94.50
55777;DHT22;54079;44.540;18.784;2024-02-14T04:56:46;6.80;94.70
55777;DHT22;54079;44.540;18.784;2024-02-14T04:59:12;6.80;94.90
55777;DHT22;54079;44.540;18.784;2024-02-14T05:01:39;6.70;95.10
55777;DHT22;54079;44.540;18.784;2024-02-14T05:04:06;6.60;95.20
55777;DHT22;54079;44.540;18.784;2024-02-14T05:06:35;6.60;95.80
55777;DHT22;54079;44.540;18.784;2024-02-14T05:09:02;6.70;96.20
55777;DHT22;54079;44.540;18.784;2024-02-14T05:11:28;6.70;95.70
55777;DHT22;54079;44.540;18.784;2024-02-14T05:13:53;6.50;95.80
55777;DHT22;54079;44.540;18.784;2024-02-14T05:16:20;6.20;96.30
55777;DHT22;54079;44.540;18.784;2024-02-14T05:18:46;6.30;96.80
55777;DHT22;54079;44.540;18.784;2024-02-14T05:21:13;6.20;97.00
55777;DHT22;54079;44.540;18.784;2024-02-14T05:23:39;6.20;97.10
55777;DHT22;54079;44.540;18.784;2024-02-14T05:26:05;6.30;97.10
55777;DHT22;54079;44.540;18.784;2024-02-14T05:28:32;6.30;97.20
55777;DHT22;54079;44.540;18.784;2024-02-14T05:30:59;6.30;96.70
55777;DHT22;54079;44.540;18.784;2024-02-14T05:33:26;6.20;97.50
55777;DHT22;54079;44.540;18.784;2024-02-14T05:35:52;6.20;97.50
55777;DHT22;54079;44.540;18.784;2024-02-14T05:38:18;6.20;97.40
55777;DHT22;54079;44.540;18.784;2024-02-14T05:40:46;6.10;96.90
55777;DHT22;54079;44.540;18.784;2024-02-14T05:43:12;5.90;97.20
55777;DHT22;54079;44.540;18.784;2024-02-14T05:45:38;5.70;97.30
55777;DHT22;54079;44.540;18.784;2024-02-14T05:48:04;5.70;98.40
55777;DHT22;54079;44.540;18.784;2024-02-14T05:50:31;5.70;98.70
55777;DHT22;54079;44.540;18.784;2024-02-14T05:52:58;5.60;98.90
55777;DHT22;54079;44.540;18.784;2024-02-14T05:55:24;5.70;98.80
55777;DHT22;54079;44.540;18.784;2024-02-14T05:57:51;5.70;98.60
55777;DHT22;54079;44.540;18.784;2024-02-14T06:00:21;5.80;98.90
55777;DHT22;54079;44.540;18.784;2024-02-14T06:02:50;5.80;98.60
55777;DHT22;54079;44.540;18.784;2024-02-14T06:05:16;5.70;98.30
55777;DHT22;54079;44.540;18.784;2024-02-14T06:07:43;5.60;98.50
55777;DHT22;54079;44.540;18.784;2024-02-14T06:10:12;5.60;99.00
55777;DHT22;54079;44.540;18.784;2024-02-14T06:12:38;5.70;99.60
55777;DHT22;54079;44.540;18.784;2024-02-14T06:15:07;5.70;99.20
55777;DHT22;54079;44.540;18.784;2024-02-14T06:17:33;5.60;99.90
55777;DHT22;54079;44.540;18.784;2024-02-14T06:19:59;5.70;99.70
55777;DHT22;54079;44.540;18.784;2024-02-14T06:22:25;5.70;99.10
55777;DHT22;54079;44.540;18.784;2024-02-14T06:24:51;5.50;99.10
55777;DHT22;54079;44.540;18.784;2024-02-14T06:27:18;5.20;99.90
55777;DHT22;54079;44.540;18.784;2024-02-14T06:29:44;4.90;99.90
55777;DHT22;54079;44.540;18.784;2024-02-14T06:32:13;5.20;99.90
55777;DHT22;54079;44.540;18.784;2024-02-14T06:34:40;5.50;99.90
55777;DHT22;54079;44.540;18.784;2024-02-14T06:37:06;5.60;99.90
55777;DHT22;54079;44.540;18.784;2024-02-14T06:39:32;5.80;99.90
55777;DHT22;54079;44.540;18.784;2024-02-14T06:41:58;5.90;99.60
55777;DHT22;54079;44.540;18.784;2024-02-14T06:44:24;5.90;99.80
55777;DHT22;54079;44.540;18.784;2024-02-14T06:46:50;6.00;99.20
55777;DHT22;54079;44.540;18.784;2024-02-14T06:49:17;5.80;99.40
55777;DHT22;54079;44.540;18.784;2024-02-14T06:51:43;5.80;99.90
55777;DHT22;54079;44.540;18.784;2024-02-14T06:54:10;5.70;99.70
55777;DHT22;54079;44.540;18.784;2024-02-14T06:56:38;5.50;99.90
55777;DHT22;54079;44.540;18.784;2024-02-14T06:59:04;5.70;99.90
55777;DHT22;54079;44.540;18.784;2024-02-14T07:01:30;5.90;99.70
55777;DHT22;54079;44.540;18.784;2024-02-14T07:03:58;5.80;99.90
55777;DHT22;54079;44.540;18.784;2024-02-14T07:06:24;5.90;99.60
55777;DHT22;54079;44.540;18.784;2024-02-14T07:08:50;6.10;99.90
55777;DHT22;54079;44.540;18.784;2024-02-14T07:11:16;6.50;99.40
55777;DHT22;54079;44.540;18.784;2024-02-14T07:13:42;6.60;98.80
55777;DHT22;54079;44.540;18.784;2024-02-14T07:16:08;6.90;98.70
55777;DHT22;54079;44.540;18.784;2024-02-14T07:18:34;7.40;97.80
55777;DHT22;54079;44.540;18.784;2024-02-14T07:21:00;7.80;96.80
55777;DHT22;54079;44.540;18.784;2024-02-14T07:23:31;7.50;96.80
55777;DHT22;54079;44.540;18.784;2024-02-14T07:26:00;7.70;96.70
55777;DHT22;54079;44.540;18.784;2024-02-14T07:28:27;9.10;96.50
55777;DHT22;54079;44.540;18.784;2024-02-14T07:30:53;11.90;92.40
55777;DHT22;54079;44.540;18.784;2024-02-14T07:33:19;15.20;86.80
55777;DHT22;54079;44.540;18.784;2024-02-14T07:35:45;16.80;79.70
55777;DHT22;54079;44.540;18.784;2024-02-14T07:38:13;20.20;73.30
55777;DHT22;54079;44.540;18.784;2024-02-14T07:40:39;22.70;66.40
55777;DHT22;54079;44.540;18.784;2024-02-14T07:43:05;24.70;60.40
55777;DHT22;54079;44.540;18.784;2024-02-14T07:45:33;25.50;55.80
55777;DHT22;54079;44.540;18.784;2024-02-14T07:47:59;26.70;55.40
55777;DHT22;54079;44.540;18.784;2024-02-14T07:50:25;28.00;52.70
55777;DHT22;54079;44.540;18.784;2024-02-14T07:52:53;28.40;49.80
55777;DHT22;54079;44.540;18.784;2024-02-14T07:55:19;27.20;49.30
55777;DHT22;54079;44.540;18.784;2024-02-14T07:57:45;28.50;50.30
55777;DHT22;54079;44.540;18.784;2024-02-14T08:00:11;28.60;48.00
55777;DHT22;54079;44.540;18.784;2024-02-14T08:02:40;29.70;49.20
55777;DHT22;54079;44.540;18.784;2024-02-14T08:05:06;29.60;48.00
55777;DHT22;54079;44.540;18.784;2024-02-14T08:07:33;30.50;46.90
55777;DHT22;54079;44.540;18.784;2024-02-14T08:09:59;31.60;46.50
55777;DHT22;54079;44.540;18.784;2024-02-14T08:12:25;31.80;45.80
55777;DHT22;54079;44.540;18.784;2024-02-14T08:14:52;32.30;44.90
55777;DHT22;54079;44.540;18.784;2024-02-14T08:17:18;33.10;45.70
55777;DHT22;54079;44.540;18.784;2024-02-14T08:19:44;33.70;44.70
55777;DHT22;54079;44.540;18.784;2024-02-14T08:22:10;32.40;43.10
55777;DHT22;54079;44.540;18.784;2024-02-14T08:24:36;32.20;44.10
55777;DHT22;54079;44.540;18.784;2024-02-14T08:27:02;31.20;42.50
55777;DHT22;54079;44.540;18.784;2024-02-14T08:29:27;32.20;44.20
55777;DHT22;54079;44.540;18.784;2024-02-14T08:31:54;31.90;44.70
55777;DHT22;54079;44.540;18.784;2024-02-14T08:34:21;33.00;43.90
55777;DHT22;54079;44.540;18.784;2024-02-14T08:36:47;32.70;43.50
55777;DHT22;54079;44.540;18.784;2024-02-14T08:39:13;32.90;42.70
55777;DHT22;54079;44.540;18.784;2024-02-14T08:41:39;33.70;43.60
55777;DHT22;54079;44.540;18.784;2024-02-14T08:44:06;34.40;42.50
55777;DHT22;54079;44.540;18.784;2024-02-14T08:46:33;34.60;42.10
55777;DHT22;54079;44.540;18.784;2024-02-14T08:49:02;33.60;41.80
55777;DHT22;54079;44.540;18.784;2024-02-14T08:51:30;33.20;42.00
55777;DHT22;54079;44.540;18.784;2024-02-14T08:53:56;33.60;42.70
55777;DHT22;54079;44.540;18.784;2024-02-14T08:56:25;33.70;41.70
55777;DHT22;54079;44.540;18.784;2024-02-14T08:58:51;34.20;42.90
55777;DHT22;54079;44.540;18.784;2024-02-14T09:01:17;34.20;42.10
55777;DHT22;54079;44.540;18.784;2024-02-14T09:03:43;32.20;40.70
55777;DHT22;54079;44.540;18.784;2024-02-14T09:06:13;32.80;41.70
55777;DHT22;54079;44.540;18.784;2024-02-14T09:08:40;32.80;42.30
55777;DHT22;54079;44.540;18.784;2024-02-14T09:11:06;32.30;42.50
55777;DHT22;54079;44.540;18.784;2024-02-14T09:13:33;31.30;41.80
55777;DHT22;54079;44.540;18.784;2024-02-14T09:15:59;32.60;42.50
55777;DHT22;54079;44.540;18.784;2024-02-14T09:18:25;31.80;41.50
55777;DHT22;54079;44.540;18.784;2024-02-14T09:20:51;31.90;42.30
55777;DHT22;54079;44.540;18.784;2024-02-14T09:23:18;31.80;43.30
55777;DHT22;54079;44.540;18.784;2024-02-14T09:25:48;32.60;43.10
55777;DHT22;54079;44.540;18.784;2024-02-14T09:28:18;31.50;42.90
55777;DHT22;54079;44.540;18.784;2024-02-14T09:30:44;30.70;42.50
55777;DHT22;54079;44.540;18.784;2024-02-14T09:33:11;31.00;43.30
55777;DHT22;54079;44.540;18.784;2024-02-14T09:35:38;29.40;43.00
55777;DHT22;54079;44.540;18.784;2024-02-14T09:38:12;29.40;45.40
55777;DHT22;54079;44.540;18.784;2024-02-14T09:40:42;28.20;44.60
55777;DHT22;54079;44.540;18.784;2024-02-14T09:45:50;22.90;48.60
55777;DHT22;54079;44.540;18.784;2024-02-14T09:48:18;19.60;51.50
55777;DHT22;54079;44.540;18.784;2024-02-14T09:50:48;18.40;53.60
55777;DHT22;54079;44.540;18.784;2024-02-14T09:53:15;17.80;55.40
55777;DHT22;54079;44.540;18.784;2024-02-14T09:55:42;17.30;56.00
55777;DHT22;54079;44.540;18.784;2024-02-14T09:58:08;16.40;56.70
55777;DHT22;54079;44.540;18.784;2024-02-14T10:00:35;16.70;57.10
55777;DHT22;54079;44.540;18.784;2024-02-14T10:03:01;16.70;56.30
55777;DHT22;54079;44.540;18.784;2024-02-14T10:05:28;16.60;58.60
55777;DHT22;54079;44.540;18.784;2024-02-14T10:07:56;16.10;59.00
55777;DHT22;54079;44.540;18.784;2024-02-14T10:10:23;16.30;60.10
55777;DHT22;54079;44.540;18.784;2024-02-14T10:12:50;16.40;58.60
55777;DHT22;54079;44.540;18.784;2024-02-14T10:15:16;16.50;59.00
55777;DHT22;54079;44.540;18.784;2024-02-14T10:17:43;16.40;58.20
55777;DHT22;54079;44.540;18.784;2024-02-14T10:20:09;16.30;58.60
55777;DHT22;54079;44.540;18.784;2024-02-14T10:22:38;16.10;57.80
55777;DHT22;54079;44.540;18.784;2024-02-14T10:25:05;15.90;59.30
55777;DHT22;54079;44.540;18.784;2024-02-14T10:27:38;15.70;59.00
55777;DHT22;54079;44.540;18.784;2024-02-14T10:30:05;15.60;59.30
55777;DHT22;54079;44.540;18.784;2024-02-14T10:32:35;15.40;59.30
55777;DHT22;54079;44.540;18.784;2024-02-14T10:35:05;15.10;60.00
55777;DHT22;54079;44.540;18.784;2024-02-14T10:37:35;15.00;60.20
55777;DHT22;54079;44.540;18.784;2024-02-14T10:40:02;15.30;59.90
55777;DHT22;54079;44.540;18.784;2024-02-14T10:42:30;15.70;60.20
55777;DHT22;54079;44.540;18.784;2024-02-14T10:44:56;15.80;59.20
55777;DHT22;54079;44.540;18.784;2024-02-14T10:47:35;15.10;59.30
55777;DHT22;54079;44.540;18.784;2024-02-14T10:50:03;14.40;60.40
55777;DHT22;54079;44.540;18.784;2024-02-14T10:52:37;14.40;61.60
55777;DHT22;54079;44.540;18.784;2024-02-14T10:55:06;14.60;62.80
55777;DHT22;54079;44.540;18.784;2024-02-14T10:57:33;14.70;61.80
55777;DHT22;54079;44.540;18.784;2024-02-14T11:00:03;14.80;60.70
55777;DHT22;54079;44.540;18.784;2024-02-14T11:02:31;14.80;61.70
55777;DHT22;54079;44.540;18.784;2024-02-14T11:04:58;15.10;60.70
55777;DHT22;54079;44.540;18.784;2024-02-14T11:07:29;14.60;61.30
55777;DHT22;54079;44.540;18.784;2024-02-14T11:10:06;14.90;60.80
55777;DHT22;54079;44.540;18.784;2024-02-14T11:12:36;15.10;61.10
55777;DHT22;54079;44.540;18.784;2024-02-14T11:15:22;15.20;61.80
55777;DHT22;54079;44.540;18.784;2024-02-14T11:18:04;15.50;61.50
55777;DHT22;54079;44.540;18.784;2024-02-14T11:20:36;15.40;60.70
55777;DHT22;54079;44.540;18.784;2024-02-14T11:23:04;15.50;61.10
55777;DHT22;54079;44.540;18.784;2024-02-14T11:25:35;15.40;61.10
55777;DHT22;54079;44.540;18.784;2024-02-14T11:28:16;15.40;60.20
55777;DHT22;54079;44.540;18.784;2024-02-14T11:30:42;13.90;60.20
55777;DHT22;54079;44.540;18.784;2024-02-14T11:33:16;14.30;62.40
55777;DHT22;54079;44.540;18.784;2024-02-14T11:35:52;14.10;61.10
55777;DHT22;54079;44.540;18.784;2024-02-14T11:38:22;14.40;61.00
55777;DHT22;54079;44.540;18.784;2024-02-14T11:40:50;14.70;62.70
55777;DHT22;54079;44.540;18.784;2024-02-14T11:43:18;14.70;60.90
55777;DHT22;54079;44.540;18.784;2024-02-14T11:45:44;14.60;60.60
55777;DHT22;54079;44.540;18.784;2024-02-14T11:48:12;14.60;61.30
55777;DHT22;54079;44.540;18.784;2024-02-14T11:50:43;14.60;61.00
55777;DHT22;54079;44.540;18.784;2024-02-14T11:53:14;14.60;61.00
55777;DHT22;54079;44.540;18.784;2024-02-14T11:55:42;14.90;60.50
55777;DHT22;54079;44.540;18.784;2024-02-14T11:58:10;15.10;60.30
55777;DHT22;54079;44.540;18.784;2024-02-14T12:00:43;15.30;59.90
55777;DHT22;54079;44.540;18.784;2024-02-14T12:03:15;14.90;60.20
55777;DHT22;54079;44.540;18.784;2024-02-14T12:05:41;14.60;59.30
55777;DHT22;54079;44.540;18.784;2024-02-14T12:08:09;14.50;60.00
55777;DHT22;54079;44.540;18.784;2024-02-14T12:10:36;14.40;60.50
55777;DHT22;54079;44.540;18.784;2024-02-14T12:13:13;14.30;60.20
55777;DHT22;54079;44.540;18.784;2024-02-14T12:15:40;14.00;60.50
55777;DHT22;54079;44.540;18.784;2024-02-14T12:18:08;14.00;60.90
55777;DHT22;54079;44.540;18.784;2024-02-14T12:20:36;13.90;61.90
55777;DHT22;54079;44.540;18.784;2024-02-14T12:23:03;13.90;61.10
55777;DHT22;54079;44.540;18.784;2024-02-14T12:25:30;14.00;61.70
55777;DHT22;54079;44.540;18.784;2024-02-14T12:27:59;14.30;61.30
55777;DHT22;54079;44.540;18.784;2024-02-14T12:30:53;14.00;61.50
55777;DHT22;54079;44.540;18.784;2024-02-14T12:33:23;13.60;60.30
55777;DHT22;54079;44.540;18.784;2024-02-14T12:35:50;13.70;60.30
55777;DHT22;54079;44.540;18.784;2024-02-14T12:38:17;13.80;60.80
55777;DHT22;54079;44.540;18.784;2024-02-14T12:40:44;13.70;60.40
55777;DHT22;54079;44.540;18.784;2024-02-14T12:43:14;13.40;58.60
55777;DHT22;54079;44.540;18.784;2024-02-14T12:45:42;13.00;58.50
55777;DHT22;54079;44.540;18.784;2024-02-14T12:48:09;13.10;57.90
55777;DHT22;54079;44.540;18.784;2024-02-14T12:50:36;12.50;57.30
55777;DHT22;54079;44.540;18.784;2024-02-14T12:53:06;12.20;59.10
55777;DHT22;54079;44.540;18.784;2024-02-14T12:55:32;11.80;59.00
55777;DHT22;54079;44.540;18.784;2024-02-14T12:57:58;11.80;58.30
55777;DHT22;54079;44.540;18.784;2024-02-14T13:00:25;12.20;59.30
55777;DHT22;54079;44.540;18.784;2024-02-14T13:02:52;12.40;58.40
55777;DHT22;54079;44.540;18.784;2024-02-14T13:05:19;12.30;56.80
55777;DHT22;54079;44.540;18.784;2024-02-14T13:07:45;12.50;57.50
55777;DHT22;54079;44.540;18.784;2024-02-14T13:10:12;12.40;55.90
55777;DHT22;54079;44.540;18.784;2024-02-14T13:12:38;12.50;58.70
55777;DHT22;54079;44.540;18.784;2024-02-14T13:15:05;12.10;56.90
55777;DHT22;54079;44.540;18.784;2024-02-14T13:17:32;11.90;56.50
55777;DHT22;54079;44.540;18.784;2024-02-14T13:19:58;11.90;56.70
55777;DHT22;54079;44.540;18.784;2024-02-14T13:22:27;11.60;57.00
55777;DHT22;54079;44.540;18.784;2024-02-14T13:24:53;11.70;56.90
55777;DHT22;54079;44.540;18.784;2024-02-14T13:27:19;11.90;55.90
55777;DHT22;54079;44.540;18.784;2024-02-14T13:29:47;11.70;57.30
55777;DHT22;54079;44.540;18.784;2024-02-14T13:32:13;11.70;58.80
55777;DHT22;54079;44.540;18.784;2024-02-14T13:34:39;11.70;57.50
55777;DHT22;54079;44.540;18.784;2024-02-14T13:37:05;11.90;58.00
55777;DHT22;54079;44.540;18.784;2024-02-14T13:39:31;12.20;58.80
55777;DHT22;54079;44.540;18.784;2024-02-14T13:41:58;12.50;59.70
55777;DHT22;54079;44.540;18.784;2024-02-14T13:44:25;12.50;57.30
55777;DHT22;54079;44.540;18.784;2024-02-14T13:46:51;12.50;56.70
55777;DHT22;54079;44.540;18.784;2024-02-14T13:49:18;12.50;56.80
55777;DHT22;54079;44.540;18.784;2024-02-14T13:51:56;12.40;57.50
55777;DHT22;54079;44.540;18.784;2024-02-14T13:54:24;12.40;58.70
55777;DHT22;54079;44.540;18.784;2024-02-14T13:56:50;12.50;58.60
55777;DHT22;54079;44.540;18.784;2024-02-14T13:59:16;12.50;56.80
55777;DHT22;54079;44.540;18.784;2024-02-14T14:01:45;12.40;57.80
55777;DHT22;54079;44.540;18.784;2024-02-14T14:04:12;12.20;57.00
55777;DHT22;54079;44.540;18.784;2024-02-14T14:06:38;12.10;57.20
55777;DHT22;54079;44.540;18.784;2024-02-14T14:09:05;12.10;56.90
55777;DHT22;54079;44.540;18.784;2024-02-14T14:11:33;12.20;58.00
55777;DHT22;54079;44.540;18.784;2024-02-14T14:13:59;12.10;58.30
55777;DHT22;54079;44.540;18.784;2024-02-14T14:16:26;12.40;59.20
55777;DHT22;54079;44.540;18.784;2024-02-14T14:18:52;12.50;58.10
55777;DHT22;54079;44.540;18.784;2024-02-14T14:21:18;12.50;58.60
55777;DHT22;54079;44.540;18.784;2024-02-14T14:23:44;12.30;58.30
55777;DHT22;54079;44.540;18.784;2024-02-14T14:26:10;12.00;56.70
55777;DHT22;54079;44.540;18.784;2024-02-14T14:28:36;12.00;57.90
55777;DHT22;54079;44.540;18.784;2024-02-14T14:31:02;11.90;58.80
55777;DHT22;54079;44.540;18.784;2024-02-14T14:33:28;11.50;56.70
55777;DHT22;54079;44.540;18.784;2024-02-14T14:35:54;11.50;58.30
55777;DHT22;54079;44.540;18.784;2024-02-14T14:38:21;11.50;59.20
55777;DHT22;54079;44.540;18.784;2024-02-14T14:40:47;11.60;59.30
55777;DHT22;54079;44.540;18.784;2024-02-14T14:43:14;11.50;58.70
55777;DHT22;54079;44.540;18.784;2024-02-14T14:45:40;11.60;58.60
55777;DHT22;54079;44.540;18.784;2024-02-14T14:48:07;11.70;59.70
55777;DHT22;54079;44.540;18.784;2024-02-14T14:50:36;11.40;57.60
55777;DHT22;54079;44.540;18.784;2024-02-14T14:53:03;11.30;57.80
55777;DHT22;54079;44.540;18.784;2024-02-14T14:55:53;11.30;59.10
55777;DHT22;54079;44.540;18.784;2024-02-14T14:58:21;11.30;59.20
55777;DHT22;54079;44.540;18.784;2024-02-14T15:00:48;11.40;59.10
55777;DHT22;54079;44.540;18.784;2024-02-14T15:03:14;11.20;59.20
55777;DHT22;54079;44.540;18.784;2024-02-14T15:05:40;11.30;59.00
55777;DHT22;54079;44.540;18.784;2024-02-14T15:08:07;11.50;60.90
55777;DHT22;54079;44.540;18.784;2024-02-14T15:10:36;11.50;60.70
55777;DHT22;54079;44.540;18.784;2024-02-14T15:13:07;11.50;59.50
55777;DHT22;54079;44.540;18.784;2024-02-14T15:15:39;11.60;60.90
55777;DHT22;54079;44.540;18.784;2024-02-14T15:18:05;11.40;60.50
55777;DHT22;54079;44.540;18.784;2024-02-14T15:20:31;11.30;59.40
55777;DHT22;54079;44.540;18.784;2024-02-14T15:22:57;11.30;60.20
55777;DHT22;54079;44.540;18.784;2024-02-14T15:25:23;11.40;60.40